sensor_id;sensor_type;location;lat;lon;timestamp;pressure;altitude;pressure_sealevel;temperature;humidity
71567;BME280;59403;47.456;19.120;2022-09-09T00:02:01;100079.38;;;18.70;92.03
71567;BME280;59403;47.456;19.120;2022-09-09T00:04:31;100080.25;;;18.64;92.00
71567;BME280;59403;47.456;19.120;2022-09-09T00:07:03;100075.53;;;18.60;92.06
71567;BME280;59403;47.456;19.120;2022-09-09T00:09:38;100074.00;;;18.70;91.60
71567;BME280;59403;47.456;19.120;2022-09-09T00:12:11;100076.91;;;18.69;91.72
71567;BME280;59403;47.456;19.120;2022-09-09T00:14:47;100077.19;;;18.61;92.10
71567;BME280;59403;47.456;19.120;2022-09-09T00:17:26;100067.09;;;18.56;92.07
71567;BME280;59403;47.456;19.120;2022-09-09T00:20:05;100072.28;;;18.51;91.79
71567;BME280;59403;47.456;19.120;2022-09-09T00:22:41;100061.59;;;18.45;91.38
71567;BME280;59403;47.456;19.120;2022-09-09T00:25:16;100088.22;;;18.40;91.26
71567;BME280;59403;47.456;19.120;2022-09-09T00:27:49;100096.25;;;18.40;90.47
71567;BME280;59403;47.456;19.120;2022-09-09T00:30:18;100088.63;;;18.37;91.52
71567;BME280;59403;47.456;19.120;2022-09-09T00:32:49;100089.72;;;18.23;90.17
71567;BME280;59403;47.456;19.120;2022-09-09T00:35:21;100084.97;;;18.25;91.21
71567;BME280;59403;47.456;19.120;2022-09-09T00:37:51;100080.44;;;18.25;90.97
71567;BME280;59403;47.456;19.120;2022-09-09T00:40:24;100083.34;;;18.24;91.16
71567;BME280;59403;47.456;19.120;2022-09-09T00:43:05;100085.41;;;18.22;91.35
71567;BME280;59403;47.456;19.120;2022-09-09T00:45:47;100096.75;;;18.24;91.30
71567;BME280;59403;47.456;19.120;2022-09-09T00:48:21;100098.41;;;18.18;91.73
71567;BME280;59403;47.456;19.120;2022-09-09T00:50:53;100090.19;;;18.13;91.53
71567;BME280;59403;47.456;19.120;2022-09-09T00:53:30;100092.88;;;18.13;91.85
71567;BME280;59403;47.456;19.120;2022-09-09T00:56:12;100084.84;;;18.13;91.82
71567;BME280;59403;47.456;19.120;2022-09-09T00:58:42;100103.41;;;18.08;91.96
71567;BME280;59403;47.456;19.120;2022-09-09T01:01:11;100099.50;;;18.04;92.17
71567;BME280;59403;47.456;19.120;2022-09-09T01:06:19;100035.16;;;17.66;91.97
71567;BME280;59403;47.456;19.120;2022-09-09T01:09:15;100107.72;;;18.09;92.37
71567;BME280;59403;47.456;19.120;2022-09-09T01:11:52;100113.91;;;18.09;92.70
71567;BME280;59403;47.456;19.120;2022-09-09T01:14:40;100115.00;;;17.95;93.11
71567;BME280;59403;47.456;19.120;2022-09-09T01:17:15;100119.09;;;18.04;92.67
71567;BME280;59403;47.456;19.120;2022-09-09T01:19:52;100127.75;;;18.06;92.29
71567;BME280;59403;47.456;19.120;2022-09-09T01:22:28;100124.66;;;18.03;92.81
71567;BME280;59403;47.456;19.120;2022-09-09T01:25:22;100120.75;;;17.99;92.73
71567;BME280;59403;47.456;19.120;2022-09-09T01:27:56;100122.41;;;18.00;93.22
71567;BME280;59403;47.456;19.120;2022-09-09T01:30:25;100133.72;;;18.02;93.14
71567;BME280;59403;47.456;19.120;2022-09-09T01:32:55;100125.47;;;18.03;93.16
71567;BME280;59403;47.456;19.120;2022-09-09T01:35:32;100120.53;;;18.00;93.30
71567;BME280;59403;47.456;19.120;2022-09-09T01:38:01;100125.75;;;17.89;93.66
71567;BME280;59403;47.456;19.120;2022-09-09T01:40:28;100126.72;;;18.01;93.22
71567;BME280;59403;47.456;19.120;2022-09-09T01:42:57;100134.59;;;17.96;93.50
71567;BME280;59403;47.456;19.120;2022-09-09T01:45:25;100124.69;;;17.96;93.51
71567;BME280;59403;47.456;19.120;2022-09-09T01:47:52;100119.34;;;17.96;93.43
71567;BME280;59403;47.456;19.120;2022-09-09T01:50:20;100118.66;;;18.07;92.93
71567;BME280;59403;47.456;19.120;2022-09-09T01:52:50;100127.78;;;18.00;93.24
71567;BME280;59403;47.456;19.120;2022-09-09T01:55:26;100128.19;;;17.97;93.30
71567;BME280;59403;47.456;19.120;2022-09-09T01:58:06;100133.75;;;17.95;93.59
71567;BME280;59403;47.456;19.120;2022-09-09T02:00:38;100138.72;;;17.92;93.99
71567;BME280;59403;47.456;19.120;2022-09-09T02:03:16;100135.19;;;17.91;93.71
71567;BME280;59403;47.456;19.120;2022-09-09T02:05:52;100136.88;;;17.92;94.11
71567;BME280;59403;47.456;19.120;2022-09-09T02:08:28;100129.84;;;17.91;94.21
71567;BME280;59403;47.456;19.120;2022-09-09T02:11:03;100140.38;;;17.86;94.20
71567;BME280;59403;47.456;19.120;2022-09-09T02:13:35;100140.59;;;17.85;94.36
71567;BME280;59403;47.456;19.120;2022-09-09T02:16:06;100137.28;;;17.83;94.57
71567;BME280;59403;47.456;19.120;2022-09-09T02:18:38;100142.84;;;17.88;94.38
71567;BME280;59403;47.456;19.120;2022-09-09T02:21:07;100148.19;;;17.88;94.28
71567;BME280;59403;47.456;19.120;2022-09-09T02:23:38;100149.25;;;17.87;94.20
71567;BME280;59403;47.456;19.120;2022-09-09T02:26:07;100148.22;;;17.81;94.06
71567;BME280;59403;47.456;19.120;2022-09-09T02:28:37;100144.31;;;17.71;94.40
71567;BME280;59403;47.456;19.120;2022-09-09T02:31:06;100155.22;;;17.76;94.12
71567;BME280;59403;47.456;19.120;2022-09-09T02:33:35;100145.37;;;17.70;94.17
71567;BME280;59403;47.456;19.120;2022-09-09T02:36:05;100140.84;;;17.70;94.20
71567;BME280;59403;47.456;19.120;2022-09-09T02:38:37;100143.13;;;17.67;94.19
71567;BME280;59403;47.456;19.120;2022-09-09T02:41:05;100145.16;;;17.71;94.18
71567;BME280;59403;47.456;19.120;2022-09-09T02:43:33;100142.88;;;17.75;94.08
71567;BME280;59403;47.456;19.120;2022-09-09T02:46:08;100138.56;;;17.74;94.20
71567;BME280;59403;47.456;19.120;2022-09-09T02:48:51;100137.75;;;17.67;93.66
71567;BME280;59403;47.456;19.120;2022-09-09T02:51:25;100144.53;;;17.69;93.31
71567;BME280;59403;47.456;19.120;2022-09-09T02:54:08;100145.78;;;17.73;93.15
71567;BME280;59403;47.456;19.120;2022-09-09T02:56:42;100144.75;;;17.68;93.67
71567;BME280;59403;47.456;19.120;2022-09-09T02:59:12;100146.63;;;17.54;93.31
71567;BME280;59403;47.456;19.120;2022-09-09T03:01:42;100150.72;;;17.57;92.39
71567;BME280;59403;47.456;19.120;2022-09-09T03:04:09;100148.66;;;17.59;92.40
71567;BME280;59403;47.456;19.120;2022-09-09T03:06:36;100146.41;;;17.56;92.62
71567;BME280;59403;47.456;19.120;2022-09-09T03:09:18;100148.25;;;17.55;91.36
71567;BME280;59403;47.456;19.120;2022-09-09T03:11:45;100139.44;;;17.55;90.68
71567;BME280;59403;47.456;19.120;2022-09-09T03:14:12;100143.31;;;17.59;90.49
71567;BME280;59403;47.456;19.120;2022-09-09T03:16:41;100145.37;;;17.57;90.87
71567;BME280;59403;47.456;19.120;2022-09-09T03:19:08;100147.84;;;17.52;90.83
71567;BME280;59403;47.456;19.120;2022-09-09T03:21:36;100144.78;;;17.55;91.31
71567;BME280;59403;47.456;19.120;2022-09-09T03:24:02;100150.53;;;17.52;91.44
71567;BME280;59403;47.456;19.120;2022-09-09T03:26:29;100140.62;;;17.46;91.40
71567;BME280;59403;47.456;19.120;2022-09-09T03:28:57;100136.94;;;17.47;91.90
71567;BME280;59403;47.456;19.120;2022-09-09T03:31:26;100141.22;;;17.41;92.10
71567;BME280;59403;47.456;19.120;2022-09-09T03:33:57;100141.25;;;17.35;93.08
71567;BME280;59403;47.456;19.120;2022-09-09T03:36:24;100138.78;;;17.40;92.37
71567;BME280;59403;47.456;19.120;2022-09-09T03:38:53;100142.91;;;17.36;92.75
71567;BME280;59403;47.456;19.120;2022-09-09T03:41:21;100139.63;;;17.34;92.43
71567;BME280;59403;47.456;19.120;2022-09-09T03:43:49;100143.91;;;17.35;92.70
71567;BME280;59403;47.456;19.120;2022-09-09T03:46:19;100146.59;;;17.35;92.48
71567;BME280;59403;47.456;19.120;2022-09-09T03:48:47;100133.00;;;17.30;92.38
71567;BME280;59403;47.456;19.120;2022-09-09T03:51:15;100143.72;;;17.30;92.94
71567;BME280;59403;47.456;19.120;2022-09-09T03:53:42;100145.56;;;17.23;93.52
71567;BME280;59403;47.456;19.120;2022-09-09T03:56:09;100155.44;;;17.22;93.31
71567;BME280;59403;47.456;19.120;2022-09-09T03:58:37;100145.37;;;17.18;93.42
71567;BME280;59403;47.456;19.120;2022-09-09T04:01:07;100152.56;;;17.17;93.32
71567;BME280;59403;47.456;19.120;2022-09-09T04:03:34;100160.41;;;17.25;93.25
71567;BME280;59403;47.456;19.120;2022-09-09T04:06:18;100164.94;;;17.18;93.58
71567;BME280;59403;47.456;19.120;2022-09-09T04:08:46;100155.87;;;17.13;94.01
71567;BME280;59403;47.456;19.120;2022-09-09T04:11:15;100162.66;;;17.09;94.18
71567;BME280;59403;47.456;19.120;2022-09-09T04:13:42;100170.69;;;17.09;94.14
71567;BME280;59403;47.456;19.120;2022-09-09T04:16:11;100160.19;;;17.07;94.14
71567;BME280;59403;47.456;19.120;2022-09-09T04:18:38;100158.53;;;17.06;94.01
71567;BME280;59403;47.456;19.120;2022-09-09T04:21:06;100166.16;;;17.02;94.14
71567;BME280;59403;47.456;19.120;2022-09-09T04:23:35;100162.22;;;16.98;94.31
71567;BME280;59403;47.456;19.120;2022-09-09T04:26:02;100165.31;;;16.95;94.39
71567;BME280;59403;47.456;19.120;2022-09-09T04:28:31;100171.47;;;16.96;94.32
71567;BME280;59403;47.456;19.120;2022-09-09T04:31:04;100172.50;;;16.95;94.67
71567;BME280;59403;47.456;19.120;2022-09-09T04:33:31;100174.34;;;16.94;94.77
71567;BME280;59403;47.456;19.120;2022-09-09T04:35:59;100164.69;;;16.93;94.78
71567;BME280;59403;47.456;19.120;2022-09-09T04:38:26;100162.19;;;16.85;94.99
71567;BME280;59403;47.456;19.120;2022-09-09T04:40:54;100161.78;;;16.82;95.35
71567;BME280;59403;47.456;19.120;2022-09-09T04:43:22;100172.09;;;16.91;94.66
71567;BME280;59403;47.456;19.120;2022-09-09T04:45:51;100170.69;;;17.02;94.24
71567;BME280;59403;47.456;19.120;2022-09-09T04:48:19;100161.81;;;17.01;94.25
71567;BME280;59403;47.456;19.120;2022-09-09T04:50:54;100162.84;;;17.07;94.11
71567;BME280;59403;47.456;19.120;2022-09-09T04:53:21;100159.97;;;17.09;94.26
71567;BME280;59403;47.456;19.120;2022-09-09T04:55:48;100166.56;;;17.06;94.37
71567;BME280;59403;47.456;19.120;2022-09-09T04:58:16;100162.84;;;17.07;94.81
71567;BME280;59403;47.456;19.120;2022-09-09T05:00:43;100159.34;;;17.07;93.98
71567;BME280;59403;47.456;19.120;2022-09-09T05:03:10;100166.37;;;17.14;93.83
71567;BME280;59403;47.456;19.120;2022-09-09T05:05:38;100159.16;;;17.21;93.61
71567;BME280;59403;47.456;19.120;2022-09-09T05:08:06;100163.91;;;17.19;94.72
71567;BME280;59403;47.456;19.120;2022-09-09T05:10:36;100164.94;;;17.18;92.67
71567;BME280;59403;47.456;19.120;2022-09-09T05:13:04;100166.78;;;17.24;92.34
71567;BME280;59403;47.456;19.120;2022-09-09T05:15:33;100164.94;;;17.18;91.54
71567;BME280;59403;47.456;19.120;2022-09-09T05:18:01;100161.00;;;17.21;91.43
71567;BME280;59403;47.456;19.120;2022-09-09T05:20:28;100154.22;;;17.18;91.05
71567;BME280;59403;47.456;19.120;2022-09-09T05:22:55;100165.75;;;17.32;90.76
71567;BME280;59403;47.456;19.120;2022-09-09T05:25:23;100155.87;;;17.32;91.13
71567;BME280;59403;47.456;19.120;2022-09-09T05:27:51;100171.53;;;17.35;90.47
71567;BME280;59403;47.456;19.120;2022-09-09T05:30:19;100172.97;;;17.44;90.90
71567;BME280;59403;47.456;19.120;2022-09-09T05:32:48;100181.22;;;17.56;90.48
71567;BME280;59403;47.456;19.120;2022-09-09T05:35:15;100187.34;;;17.95;89.56
71567;BME280;59403;47.456;19.120;2022-09-09T05:37:44;100184.06;;;18.64;86.17
71567;BME280;59403;47.456;19.120;2022-09-09T05:40:14;100180.50;;;19.39;83.22
71567;BME280;59403;47.456;19.120;2022-09-09T05:49:13;100191.19;;;19.88;81.90
71567;BME280;59403;47.456;19.120;2022-09-09T05:51:54;100184.13;;;19.69;80.19
71567;BME280;59403;47.456;19.120;2022-09-09T05:54:21;100196.19;;;19.84;81.56
71567;BME280;59403;47.456;19.120;2022-09-09T05:56:58;100191.12;;;19.52;79.22
71567;BME280;59403;47.456;19.120;2022-09-09T05:59:25;100194.56;;;19.83;80.24
71567;BME280;59403;47.456;19.120;2022-09-09T06:01:52;100188.81;;;19.80;80.68
71567;BME280;59403;47.456;19.120;2022-09-09T06:04:20;100195.03;;;19.56;80.28
71567;BME280;59403;47.456;19.120;2022-09-09T06:06:50;100199.78;;;19.78;80.30
71567;BME280;59403;47.456;19.120;2022-09-09T06:09:31;100196.72;;;19.75;80.69
71567;BME280;59403;47.456;19.120;2022-09-09T06:12:02;100199.72;;;19.60;80.71
71567;BME280;59403;47.456;19.120;2022-09-09T06:17:35;100188.19;;;19.29;82.59
71567;BME280;59403;47.456;19.120;2022-09-09T06:20:07;100185.75;;;19.20;83.04
71567;BME280;59403;47.456;19.120;2022-09-09T06:22:34;100189.78;;;19.05;83.13
71567;BME280;59403;47.456;19.120;2022-09-09T06:25:01;100193.37;;;18.92;82.44
71567;BME280;59403;47.456;19.120;2022-09-09T06:27:28;100179.16;;;18.92;83.03
71567;BME280;59403;47.456;19.120;2022-09-09T06:29:56;100196.66;;;18.94;84.22
71567;BME280;59403;47.456;19.120;2022-09-09T06:32:23;100189.84;;;18.98;83.30
71567;BME280;59403;47.456;19.120;2022-09-09T06:34:52;100194.56;;;19.03;83.04
71567;BME280;59403;47.456;19.120;2022-09-09T06:37:21;100203.78;;;19.13;82.61
71567;BME280;59403;47.456;19.120;2022-09-09T06:39:49;100194.69;;;19.14;79.86
71567;BME280;59403;47.456;19.120;2022-09-09T06:42:18;100199.41;;;19.19;80.62
71567;BME280;59403;47.456;19.120;2022-09-09T06:44:45;100186.13;;;19.31;79.97
71567;BME280;59403;47.456;19.120;2022-09-09T06:47:12;100187.94;;;19.37;79.94
71567;BME280;59403;47.456;19.120;2022-09-09T06:49:38;100185.38;;;19.48;79.59
71567;BME280;59403;47.456;19.120;2022-09-09T06:52:05;100174.78;;;19.53;79.52
71567;BME280;59403;47.456;19.120;2022-09-09T06:54:39;100178.00;;;19.62;79.78
71567;BME280;59403;47.456;19.120;2022-09-09T06:57:06;100184.53;;;19.72;80.38
71567;BME280;59403;47.456;19.120;2022-09-09T06:59:37;100190.56;;;19.68;80.46
71567;BME280;59403;47.456;19.120;2022-09-09T07:02:04;100191.34;;;19.75;79.17
71567;BME280;59403;47.456;19.120;2022-09-09T07:04:33;100189.66;;;19.74;78.52
71567;BME280;59403;47.456;19.120;2022-09-09T07:07:00;100199.47;;;19.86;78.12
71567;BME280;59403;47.456;19.120;2022-09-09T07:09:29;100199.25;;;19.88;77.98
71567;BME280;59403;47.456;19.120;2022-09-09T07:12:05;100210.63;;;19.90;78.68
71567;BME280;59403;47.456;19.120;2022-09-09T07:14:33;100210.91;;;19.82;79.30
71567;BME280;59403;47.456;19.120;2022-09-09T07:17:06;100205.09;;;19.60;78.15
71567;BME280;59403;47.456;19.120;2022-09-09T07:19:36;100206.22;;;19.53;79.54
71567;BME280;59403;47.456;19.120;2022-09-09T07:22:03;100225.72;;;19.42;80.52
71567;BME280;59403;47.456;19.120;2022-09-09T07:24:31;100222.06;;;19.30;81.06
71567;BME280;59403;47.456;19.120;2022-09-09T07:27:00;100222.69;;;19.32;81.53
71567;BME280;59403;47.456;19.120;2022-09-09T07:29:28;100218.91;;;19.64;79.94
71567;BME280;59403;47.456;19.120;2022-09-09T07:32:01;100225.25;;;19.94;79.10
71567;BME280;59403;47.456;19.120;2022-09-09T07:34:29;100220.69;;;20.19;77.87
71567;BME280;59403;47.456;19.120;2022-09-09T07:37:00;100221.78;;;20.11;76.74
71567;BME280;59403;47.456;19.120;2022-09-09T07:39:27;100223.47;;;20.30;75.91
71567;BME280;59403;47.456;19.120;2022-09-09T07:41:56;100224.25;;;20.13;75.02
71567;BME280;59403;47.456;19.120;2022-09-09T07:44:46;100227.56;;;20.33;73.68
71567;BME280;59403;47.456;19.120;2022-09-09T07:47:39;100230.94;;;20.47;73.08
71567;BME280;59403;47.456;19.120;2022-09-09T07:50:40;100232.50;;;20.54;72.11
71567;BME280;59403;47.456;19.120;2022-09-09T07:53:07;100226.13;;;20.67;71.39
71567;BME280;59403;47.456;19.120;2022-09-09T07:55:35;100218.81;;;20.74;72.31
71567;BME280;59403;47.456;19.120;2022-09-09T07:58:05;100224.97;;;20.92;72.23
71567;BME280;59403;47.456;19.120;2022-09-09T08:00:39;100224.72;;;21.12;72.04
71567;BME280;59403;47.456;19.120;2022-09-09T08:03:16;100227.37;;;21.00;71.64
71567;BME280;59403;47.456;19.120;2022-09-09T08:05:44;100226.94;;;21.15;69.78
71567;BME280;59403;47.456;19.120;2022-09-09T08:08:11;100223.50;;;21.37;70.40
71567;BME280;59403;47.456;19.120;2022-09-09T08:10:38;100217.09;;;21.50;70.62
71567;BME280;59403;47.456;19.120;2022-09-09T08:13:15;100226.78;;;21.51;68.25
71567;BME280;59403;47.456;19.120;2022-09-09T08:19:29;100229.72;;;21.50;67.82
71567;BME280;59403;47.456;19.120;2022-09-09T08:22:04;100232.75;;;21.30;67.54
71567;BME280;59403;47.456;19.120;2022-09-09T08:27:47;100230.00;;;21.71;65.96
71567;BME280;59403;47.456;19.120;2022-09-09T08:30:18;100223.25;;;21.80;66.12
71567;BME280;59403;47.456;19.120;2022-09-09T08:33:14;100217.47;;;21.77;62.84
71567;BME280;59403;47.456;19.120;2022-09-09T08:35:54;100224.41;;;22.07;65.62
71567;BME280;59403;47.456;19.120;2022-09-09T08:38:27;100210.00;;;22.13;63.62
71567;BME280;59403;47.456;19.120;2022-09-09T08:41:05;100213.50;;;22.14;60.59
71567;BME280;59403;47.456;19.120;2022-09-09T08:44:01;100217.38;;;22.18;61.81
71567;BME280;59403;47.456;19.120;2022-09-09T09:24:06;100213.34;;;23.39;60.04
71567;BME280;59403;47.456;19.120;2022-09-09T09:26:35;100205.97;;;23.51;58.00
71567;BME280;59403;47.456;19.120;2022-09-09T09:29:12;100209.87;;;23.77;58.33
71567;BME280;59403;47.456;19.120;2022-09-09T09:31:55;100207.63;;;23.52;57.58
71567;BME280;59403;47.456;19.120;2022-09-09T09:34:23;100196.94;;;23.96;57.18
71567;BME280;59403;47.456;19.120;2022-09-09T09:36:53;100195.38;;;24.00;56.15
71567;BME280;59403;47.456;19.120;2022-09-09T09:39:27;100193.59;;;23.89;55.43
71567;BME280;59403;47.456;19.120;2022-09-09T09:42:09;100191.69;;;24.06;55.22
71567;BME280;59403;47.456;19.120;2022-09-09T09:44:40;100198.56;;;24.13;54.57
71567;BME280;59403;47.456;19.120;2022-09-09T09:47:15;100191.81;;;24.16;55.32
71567;BME280;59403;47.456;19.120;2022-09-09T09:49:52;100187.88;;;24.23;55.27
71567;BME280;59403;47.456;19.120;2022-09-09T09:52:23;100193.72;;;24.37;55.50
71567;BME280;59403;47.456;19.120;2022-09-09T09:54:52;100198.06;;;24.38;54.60
71567;BME280;59403;47.456;19.120;2022-09-09T09:57:25;100196.31;;;24.48;54.51
71567;BME280;59403;47.456;19.120;2022-09-09T10:00:02;100197.19;;;24.54;50.86
71567;BME280;59403;47.456;19.120;2022-09-09T10:02:38;100198.97;;;24.65;51.31
71567;BME280;59403;47.456;19.120;2022-09-09T10:05:15;100196.63;;;24.52;47.77
71567;BME280;59403;47.456;19.120;2022-09-09T10:07:42;100204.78;;;24.74;51.13
71567;BME280;59403;47.456;19.120;2022-09-09T10:10:17;100187.09;;;24.93;50.15
71567;BME280;59403;47.456;19.120;2022-09-09T10:12:55;100196.56;;;24.68;46.90
71567;BME280;59403;47.456;19.120;2022-09-09T10:15:38;100189.25;;;24.91;49.67
71567;BME280;59403;47.456;19.120;2022-09-09T10:18:34;100179.53;;;24.95;50.45
71567;BME280;59403;47.456;19.120;2022-09-09T10:21:11;100186.37;;;25.02;49.27
71567;BME280;59403;47.456;19.120;2022-09-09T10:23:54;100186.53;;;24.91;50.58
71567;BME280;59403;47.456;19.120;2022-09-09T10:26:35;100183.03;;;25.22;50.31
71567;BME280;59403;47.456;19.120;2022-09-09T10:32:17;100180.56;;;25.42;49.54
71567;BME280;59403;47.456;19.120;2022-09-09T10:34:56;100183.50;;;25.40;48.21
71567;BME280;59403;47.456;19.120;2022-09-09T10:37:37;100173.53;;;25.46;47.18
71567;BME280;59403;47.456;19.120;2022-09-09T10:40:24;100183.75;;;25.39;47.43
71567;BME280;59403;47.456;19.120;2022-09-09T10:43:07;100185.87;;;25.63;47.42
71567;BME280;59403;47.456;19.120;2022-09-09T10:45:46;100180.50;;;25.73;46.89
71567;BME280;59403;47.456;19.120;2022-09-09T10:48:37;100183.37;;;25.57;45.63
71567;BME280;59403;47.456;19.120;2022-09-09T10:51:21;100183.16;;;25.63;44.56
71567;BME280;59403;47.456;19.120;2022-09-09T10:54:09;100178.28;;;25.34;46.66
71567;BME280;59403;47.456;19.120;2022-09-09T10:56:41;100173.25;;;25.84;46.86
71567;BME280;59403;47.456;19.120;2022-09-09T10:59:16;100173.84;;;25.91;48.93
71567;BME280;59403;47.456;19.120;2022-09-09T11:01:49;100174.28;;;26.10;47.11
71567;BME280;59403;47.456;19.120;2022-09-09T11:04:22;100167.56;;;25.86;46.51
71567;BME280;59403;47.456;19.120;2022-09-09T11:06:53;100178.34;;;25.75;45.62
71567;BME280;59403;47.456;19.120;2022-09-09T11:09:23;100172.50;;;25.94;46.62
71567;BME280;59403;47.456;19.120;2022-09-09T11:11:53;100158.13;;;25.98;44.32
71567;BME280;59403;47.456;19.120;2022-09-09T11:14:30;100169.94;;;26.14;44.31
71567;BME280;59403;47.456;19.120;2022-09-09T11:17:01;100160.22;;;26.28;45.05
71567;BME280;59403;47.456;19.120;2022-09-09T11:19:33;100154.47;;;26.19;45.16
71567;BME280;59403;47.456;19.120;2022-09-09T11:22:03;100157.56;;;26.43;45.56
71567;BME280;59403;47.456;19.120;2022-09-09T11:24:56;100155.63;;;26.28;44.90
71567;BME280;59403;47.456;19.120;2022-09-09T11:27:29;100157.50;;;26.28;43.25
71567;BME280;59403;47.456;19.120;2022-09-09T11:30:11;100162.25;;;26.57;43.29
71567;BME280;59403;47.456;19.120;2022-09-09T11:32:52;100163.34;;;26.56;42.85
71567;BME280;59403;47.456;19.120;2022-09-09T11:35:38;100156.19;;;26.35;43.00
71567;BME280;59403;47.456;19.120;2022-09-09T11:38:18;100160.34;;;26.63;43.37
71567;BME280;59403;47.456;19.120;2022-09-09T11:40:54;100158.81;;;26.77;43.38
71567;BME280;59403;47.456;19.120;2022-09-09T11:43:27;100163.59;;;26.55;43.63
71567;BME280;59403;47.456;19.120;2022-09-09T11:45:58;100146.56;;;26.74;43.66
71567;BME280;59403;47.456;19.120;2022-09-09T11:48:32;100144.69;;;26.90;42.93
71567;BME280;59403;47.456;19.120;2022-09-09T11:51:04;100143.34;;;26.98;41.76
71567;BME280;59403;47.456;19.120;2022-09-09T11:53:33;100138.66;;;26.68;40.35
71567;BME280;59403;47.456;19.120;2022-09-09T11:56:12;100144.12;;;26.88;41.90
71567;BME280;59403;47.456;19.120;2022-09-09T11:58:53;100143.03;;;26.79;40.27
71567;BME280;59403;47.456;19.120;2022-09-09T12:08:16;100141.72;;;27.12;40.49
71567;BME280;59403;47.456;19.120;2022-09-09T12:11:03;100127.59;;;27.45;41.32
71567;BME280;59403;47.456;19.120;2022-09-09T12:13:30;100126.25;;;27.37;40.84
71567;BME280;59403;47.456;19.120;2022-09-09T12:15:59;100139.19;;;26.65;41.92
71567;BME280;59403;47.456;19.120;2022-09-09T12:18:32;100140.16;;;26.34;43.20
71567;BME280;59403;47.456;19.120;2022-09-09T12:21:06;100146.31;;;26.09;44.83
71567;BME280;59403;47.456;19.120;2022-09-09T12:23:40;100139.13;;;25.93;44.92
71567;BME280;59403;47.456;19.120;2022-09-09T12:26:31;100138.31;;;25.98;44.80
71567;BME280;59403;47.456;19.120;2022-09-09T12:29:11;100134.06;;;26.07;46.05
71567;BME280;59403;47.456;19.120;2022-09-09T12:31:45;100131.81;;;25.99;45.70
71567;BME280;59403;47.456;19.120;2022-09-09T12:34:20;100121.44;;;25.86;46.39
71567;BME280;59403;47.456;19.120;2022-09-09T12:37:15;100126.06;;;25.85;47.81
71567;BME280;59403;47.456;19.120;2022-09-09T12:39:51;100117.50;;;26.08;45.42
71567;BME280;59403;47.456;19.120;2022-09-09T12:42:23;100108.56;;;26.08;42.90
71567;BME280;59403;47.456;19.120;2022-09-09T12:44:54;100102.44;;;26.47;43.93
71567;BME280;59403;47.456;19.120;2022-09-09T12:47:35;100110.16;;;26.70;44.32
71567;BME280;59403;47.456;19.120;2022-09-09T12:50:20;100113.97;;;26.95;43.90
71567;BME280;59403;47.456;19.120;2022-09-09T12:53:22;100097.31;;;26.61;42.98
71567;BME280;59403;47.456;19.120;2022-09-09T12:55:56;100097.31;;;26.51;44.40
71567;BME280;59403;47.456;19.120;2022-09-09T12:58:31;100093.16;;;26.23;46.24
71567;BME280;59403;47.456;19.120;2022-09-09T13:04:22;100089.41;;;25.83;46.67
71567;BME280;59403;47.456;19.120;2022-09-09T13:07:11;100087.91;;;26.12;46.25
71567;BME280;59403;47.456;19.120;2022-09-09T13:09:39;100083.72;;;26.46;45.48
71567;BME280;59403;47.456;19.120;2022-09-09T13:12:13;100085.22;;;26.12;44.69
71567;BME280;59403;47.456;19.120;2022-09-09T13:14:57;100068.16;;;26.21;45.85
71567;BME280;59403;47.456;19.120;2022-09-09T13:17:25;100063.66;;;25.90;46.35
71567;BME280;59403;47.456;19.120;2022-09-09T13:19:55;100076.88;;;25.71;46.31
71567;BME280;59403;47.456;19.120;2022-09-09T13:22:30;100073.22;;;25.56;45.75
71567;BME280;59403;47.456;19.120;2022-09-09T13:25:03;100060.50;;;25.56;47.21
71567;BME280;59403;47.456;19.120;2022-09-09T13:27:39;100055.56;;;25.48;46.97
71567;BME280;59403;47.456;19.120;2022-09-09T13:30:21;100051.50;;;25.51;45.68
71567;BME280;59403;47.456;19.120;2022-09-09T13:33:03;100056.19;;;25.60;47.04
71567;BME280;59403;47.456;19.120;2022-09-09T13:35:32;100053.16;;;25.52;45.23
71567;BME280;59403;47.456;19.120;2022-09-09T13:38:07;100057.22;;;25.54;46.46
71567;BME280;59403;47.456;19.120;2022-09-09T13:40:38;100058.06;;;25.55;46.30
71567;BME280;59403;47.456;19.120;2022-09-09T13:43:14;100053.44;;;25.50;46.58
71567;BME280;59403;47.456;19.120;2022-09-09T13:45:53;100053.28;;;25.35;46.33
71567;BME280;59403;47.456;19.120;2022-09-09T13:48:20;100063.00;;;25.26;46.57
71567;BME280;59403;47.456;19.120;2022-09-09T13:50:54;100059.44;;;25.21;46.44
71567;BME280;59403;47.456;19.120;2022-09-09T13:53:22;100057.50;;;25.21;46.67
71567;BME280;59403;47.456;19.120;2022-09-09T13:55:51;100044.72;;;25.12;45.11
71567;BME280;59403;47.456;19.120;2022-09-09T13:58:20;100042.66;;;25.29;43.81
71567;BME280;59403;47.456;19.120;2022-09-09T14:00:48;100045.38;;;25.29;43.92
71567;BME280;59403;47.456;19.120;2022-09-09T14:03:23;100041.16;;;25.43;43.96
71567;BME280;59403;47.456;19.120;2022-09-09T14:05:58;100040.50;;;25.72;43.47
71567;BME280;59403;47.456;19.120;2022-09-09T14:08:27;100035.94;;;25.83;42.42
71567;BME280;59403;47.456;19.120;2022-09-09T14:11:02;100034.00;;;25.78;44.20
71567;BME280;59403;47.456;19.120;2022-09-09T14:13:31;100029.03;;;25.55;44.90
71567;BME280;59403;47.456;19.120;2022-09-09T14:15:59;100026.44;;;25.34;45.56
71567;BME280;59403;47.456;19.120;2022-09-09T14:18:26;100024.88;;;25.06;45.73
71567;BME280;59403;47.456;19.120;2022-09-09T14:20:53;100014.88;;;25.07;46.18